createdAt,value
2023-03-26T00:01:36.973Z,6.70
2023-03-26T00:04:02.438Z,7.07
2023-03-26T00:06:30.049Z,7.65
2023-03-26T00:08:57.333Z,6.45
2023-03-26T00:11:23.658Z,7.95
2023-03-26T00:13:48.618Z,7.90
2023-03-26T00:16:14.252Z,6.47
2023-03-26T00:18:40.527Z,6.72
2023-03-26T00:23:47.517Z,8.40
2023-03-26T00:26:12.968Z,7.55
2023-03-26T00:28:38.116Z,8.55
2023-03-26T00:31:05.562Z,8.20
2023-03-26T00:33:31.924Z,8.10
2023-03-26T00:35:58.845Z,7.57
2023-03-26T00:38:24.183Z,8.57
2023-03-26T00:40:51.020Z,10.00
2023-03-26T00:43:32.991Z,7.82
2023-03-26T00:45:57.855Z,8.18
2023-03-26T00:48:34.344Z,8.80
2023-03-26T00:51:08.948Z,6.68
2023-03-26T00:53:34.073Z,8.38
2023-03-26T00:56:13.076Z,10.10
2023-03-26T00:58:38.405Z,10.02
2023-03-26T01:01:04.973Z,11.82
2023-03-26T01:03:33.744Z,8.73
2023-03-26T01:06:05.841Z,7.38
2023-03-26T01:08:34.393Z,7.57
2023-03-26T01:11:06.959Z,7.78
2023-03-26T01:13:36.354Z,7.78
2023-03-26T01:16:04.188Z,9.30
2023-03-26T01:18:33.926Z,7.15
2023-03-26T01:21:05.381Z,11.93
2023-03-26T01:23:39.124Z,10.13
2023-03-26T01:26:14.351Z,9.60
2023-03-26T01:28:45.079Z,6.88
2023-03-26T01:31:17.587Z,7.80
2023-03-26T01:33:47.887Z,10.65
2023-03-26T01:36:19.088Z,6.18
2023-03-26T01:38:51.318Z,8.35
2023-03-26T01:41:22.254Z,8.68
2023-03-26T01:43:52.730Z,6.22
2023-03-26T01:46:19.396Z,6.35
2023-03-26T01:48:46.294Z,5.70
2023-03-26T01:51:12.436Z,5.25
2023-03-26T01:53:42.392Z,5.07
2023-03-26T01:56:13.921Z,5.68
2023-03-26T01:58:51.141Z,5.13
2023-03-26T02:01:27.996Z,7.15
2023-03-26T02:03:59.127Z,6.68
2023-03-26T02:06:30.797Z,6.25
2023-03-26T02:08:59.451Z,7.78
2023-03-26T02:11:33.515Z,5.13
2023-03-26T02:14:01.629Z,4.95
2023-03-26T02:16:26.264Z,6.47
2023-03-26T02:18:55.843Z,5.40
2023-03-26T02:21:22.418Z,7.03
2023-03-26T02:23:48.060Z,4.35
2023-03-26T02:26:13.064Z,6.18
2023-03-26T02:28:51.769Z,4.65
2023-03-26T02:31:21.950Z,6.50
2023-03-26T02:33:47.825Z,6.28
2023-03-26T02:36:14.121Z,5.80
2023-03-26T02:38:41.783Z,7.50
2023-03-26T02:41:07.338Z,6.50
2023-03-26T02:43:58.110Z,7.15
2023-03-26T02:46:40.587Z,8.25
2023-03-26T02:49:43.947Z,7.85
2023-03-26T02:52:12.311Z,6.07
2023-03-26T02:54:37.501Z,8.80
2023-03-26T02:57:22.143Z,6.97
2023-03-26T03:00:14.106Z,7.05
2023-03-26T03:02:59.296Z,7.95
2023-03-26T03:05:29.116Z,8.10
2023-03-26T03:08:18.592Z,8.27
2023-03-26T03:11:05.421Z,6.60
2023-03-26T03:13:39.961Z,6.20
2023-03-26T03:16:05.738Z,9.35
2023-03-26T03:18:31.976Z,5.72
2023-03-26T03:20:57.082Z,7.20
2023-03-26T03:23:22.038Z,10.43
2023-03-26T03:25:52.993Z,9.48
2023-03-26T03:28:18.417Z,7.18
2023-03-26T03:30:43.045Z,10.65
2023-03-26T03:33:20.539Z,7.85
2023-03-26T03:35:48.193Z,7.50
2023-03-26T03:38:12.805Z,8.55
2023-03-26T03:40:46.615Z,7.70
2023-03-26T03:43:11.700Z,8.95
2023-03-26T03:45:48.763Z,9.30
2023-03-26T03:48:26.779Z,9.38
2023-03-26T03:50:53.969Z,9.30
2023-03-26T03:53:22.505Z,9.00
2023-03-26T03:55:53.400Z,8.73
2023-03-26T03:58:21.827Z,8.60
2023-03-26T04:00:48.706Z,10.10
2023-03-26T04:03:33.912Z,11.02
2023-03-26T04:06:07.043Z,10.70
2023-03-26T04:08:31.986Z,9.70
2023-03-26T04:10:56.552Z,14.98
2023-03-26T04:13:41.241Z,13.43
2023-03-26T04:16:26.155Z,11.45
2023-03-26T04:18:50.803Z,6.90
2023-03-26T04:21:20.048Z,13.38
2023-03-26T04:23:45.453Z,10.82
2023-03-26T04:26:25.003Z,12.50
2023-03-26T04:29:17.940Z,14.07
2023-03-26T04:31:43.687Z,10.40
2023-03-26T04:34:15.923Z,8.65
2023-03-26T04:36:51.568Z,10.13
2023-03-26T04:39:19.919Z,9.38
2023-03-26T04:42:03.122Z,12.25
2023-03-26T04:44:37.660Z,11.07
2023-03-26T04:47:07.207Z,11.13
2023-03-26T04:49:41.476Z,11.52
2023-03-26T04:52:10.621Z,12.10
2023-03-26T04:54:55.605Z,12.05
2023-03-26T04:57:27.491Z,12.05
2023-03-26T05:00:00.549Z,11.13
2023-03-26T05:02:29.393Z,13.80
2023-03-26T05:04:54.013Z,12.95
2023-03-26T05:07:23.977Z,10.48
2023-03-26T05:09:57.679Z,10.32
2023-03-26T05:12:40.992Z,12.10
2023-03-26T05:15:10.886Z,12.30
2023-03-26T05:17:58.262Z,12.07
2023-03-26T05:20:42.005Z,13.25
2023-03-26T05:23:09.410Z,14.60
2023-03-26T05:25:36.205Z,13.73
2023-03-26T05:28:04.332Z,13.13
2023-03-26T05:30:39.776Z,12.23
2023-03-26T05:33:04.487Z,13.55
2023-03-26T05:35:38.430Z,11.60
2023-03-26T05:38:06.686Z,14.88
2023-03-26T05:40:33.014Z,11.40
2023-03-26T05:43:01.320Z,11.43
2023-03-26T05:45:52.426Z,10.98
2023-03-26T05:48:25.044Z,12.18
2023-03-26T05:50:50.424Z,10.77
2023-03-26T05:53:15.898Z,11.23
2023-03-26T05:56:00.992Z,11.60
2023-03-26T05:58:44.448Z,11.55
2023-03-26T06:01:27.858Z,10.75
2023-03-26T06:04:11.103Z,13.55
2023-03-26T06:06:40.551Z,11.68
2023-03-26T06:09:05.341Z,11.82
2023-03-26T06:11:32.281Z,11.77
2023-03-26T06:13:58.928Z,11.57
2023-03-26T06:16:26.388Z,11.38
2023-03-26T06:19:15.987Z,14.25
2023-03-26T06:22:01.564Z,12.57
2023-03-26T06:24:36.376Z,13.50
2023-03-26T06:27:21.350Z,15.10
2023-03-26T06:30:07.367Z,9.75
2023-03-26T06:32:41.057Z,14.80
2023-03-26T06:35:11.289Z,14.40
2023-03-26T06:37:36.281Z,10.23
2023-03-26T06:40:01.040Z,15.85
2023-03-26T06:43:09.967Z,12.50
2023-03-26T06:45:53.944Z,11.45
2023-03-26T06:48:36.871Z,12.88
2023-03-26T06:51:24.355Z,9.52
2023-03-26T06:54:01.118Z,10.85
2023-03-26T06:56:45.960Z,9.55
2023-03-26T06:59:30.700Z,9.00
2023-03-26T07:02:13.690Z,10.68
2023-03-26T07:04:57.351Z,10.43
2023-03-26T07:07:46.670Z,8.38
2023-03-26T07:10:38.184Z,5.75
2023-03-26T07:13:23.067Z,5.53
2023-03-26T07:16:08.528Z,5.40
2023-03-26T07:19:05.614Z,5.13
2023-03-26T07:21:37.223Z,3.35
2023-03-26T07:24:13.796Z,4.05
2023-03-26T07:27:08.011Z,3.72
2023-03-26T07:29:43.493Z,2.67
2023-03-26T07:32:40.644Z,1.88
2023-03-26T07:35:25.415Z,3.15
2023-03-26T07:38:26.014Z,1.95
2023-03-26T07:41:17.766Z,2.20
2023-03-26T07:46:48.141Z,2.95
2023-03-26T07:49:39.014Z,3.90
2023-03-26T07:52:30.803Z,2.25
2023-03-26T07:55:20.203Z,2.47
2023-03-26T07:58:05.653Z,1.98
2023-03-26T08:01:03.801Z,3.05
2023-03-26T08:03:38.329Z,3.25
2023-03-26T08:06:34.366Z,3.97
2023-03-26T08:09:53.811Z,1.27
2023-03-26T08:12:43.360Z,2.00
2023-03-26T08:15:15.321Z,2.10
2023-03-26T08:17:44.982Z,1.30
2023-03-26T08:20:19.417Z,2.30
2023-03-26T08:22:52.037Z,2.30
2023-03-26T08:25:25.572Z,1.40
2023-03-26T08:28:01.441Z,1.88
2023-03-26T08:30:27.705Z,2.25
2023-03-26T08:32:57.706Z,1.73
2023-03-26T08:35:22.615Z,1.08
2023-03-26T08:37:48.684Z,2.05
2023-03-26T08:40:15.073Z,2.30
2023-03-26T08:43:18.019Z,0.65
2023-03-26T08:46:16.464Z,1.33
2023-03-26T08:49:11.074Z,1.55
2023-03-26T08:52:15.554Z,0.73
2023-03-26T08:55:27.809Z,0.93
2023-03-26T08:58:25.440Z,0.82
2023-03-26T09:01:27.281Z,1.77
2023-03-26T09:04:27.452Z,1.13
2023-03-26T09:07:31.391Z,3.53
2023-03-26T09:10:31.652Z,0.90
2023-03-26T09:13:40.821Z,2.35
2023-03-26T09:16:39.677Z,0.65
2023-03-26T09:19:41.777Z,0.80
2023-03-26T09:22:35.766Z,1.85
2023-03-26T09:25:41.737Z,2.25
2023-03-26T09:28:50.548Z,1.27
2023-03-26T09:31:51.470Z,1.90
2023-03-26T09:34:31.776Z,1.38
2023-03-26T09:36:57.804Z,4.00
2023-03-26T09:39:37.740Z,2.25
2023-03-26T09:42:11.733Z,4.80
2023-03-26T09:45:10.747Z,2.22
2023-03-26T09:47:57.074Z,2.67
2023-03-26T09:50:36.697Z,1.15
2023-03-26T09:53:32.191Z,1.77
2023-03-26T09:56:05.932Z,3.25
2023-03-26T09:59:05.948Z,2.13
2023-03-26T10:01:45.680Z,1.00
2023-03-26T10:04:40.504Z,2.35
2023-03-26T10:07:10.561Z,3.72
2023-03-26T10:09:48.569Z,1.27
2023-03-26T10:12:23.672Z,3.47
2023-03-26T10:15:00.900Z,1.25
2023-03-26T10:17:44.555Z,1.70
2023-03-26T10:20:30.685Z,1.40
2023-03-26T10:23:10.259Z,1.13
2023-03-26T10:25:59.478Z,1.65
2023-03-26T10:28:55.167Z,1.85
2023-03-26T10:31:36.856Z,1.35
2023-03-26T10:34:28.471Z,1.88
2023-03-26T10:37:00.978Z,3.42
2023-03-26T10:39:43.430Z,2.90
2023-03-26T10:42:44.820Z,4.68
2023-03-26T10:45:27.595Z,2.05
2023-03-26T10:48:05.195Z,2.50
2023-03-26T10:50:44.018Z,3.53
2023-03-26T10:53:14.027Z,3.25
2023-03-26T10:55:40.988Z,4.00
2023-03-26T10:58:13.741Z,3.33
2023-03-26T11:00:46.023Z,5.50
2023-03-26T11:03:31.192Z,3.00
2023-03-26T11:06:05.917Z,3.13
2023-03-26T11:08:37.861Z,6.45
2023-03-26T11:11:14.108Z,4.43
2023-03-26T11:13:48.016Z,8.70
2023-03-26T11:16:20.410Z,4.00
2023-03-26T11:18:50.502Z,3.28
2023-03-26T11:21:25.606Z,3.05
2023-03-26T11:24:04.932Z,3.63
2023-03-26T11:26:41.100Z,4.53
2023-03-26T11:29:31.306Z,7.40
2023-03-26T11:32:05.457Z,2.47
2023-03-26T11:34:35.409Z,4.20
2023-03-26T11:39:42.992Z,4.05
2023-03-26T11:42:11.271Z,5.38
2023-03-26T11:44:42.448Z,3.55
2023-03-26T11:47:12.308Z,3.10
2023-03-26T11:49:39.013Z,3.65
2023-03-26T11:52:05.397Z,3.28
2023-03-26T11:54:30.194Z,2.10
2023-03-26T11:57:05.888Z,3.75
2023-03-26T11:59:45.229Z,2.50
2023-03-26T12:02:25.670Z,3.75
2023-03-26T12:04:55.530Z,6.03
2023-03-26T12:09:53.014Z,2.00
2023-03-26T12:12:19.197Z,2.35
2023-03-26T12:14:44.462Z,2.30
2023-03-26T12:17:13.186Z,3.85
2023-03-26T12:19:41.116Z,3.83
2023-03-26T12:22:06.159Z,2.38
2023-03-26T12:24:34.178Z,2.50
2023-03-26T12:27:02.458Z,3.15
2023-03-26T12:29:28.065Z,3.30
2023-03-26T12:32:04.441Z,3.55
2023-03-26T12:34:35.329Z,5.65
2023-03-26T12:37:01.367Z,2.33
2023-03-26T12:40:09.886Z,6.72
2023-03-26T12:44:51.043Z,2.65
2023-03-26T12:45:24.201Z,4.25
2023-03-26T12:48:01.409Z,3.17
2023-03-26T12:50:35.854Z,7.95
2023-03-26T12:53:20.146Z,4.13
2023-03-26T12:55:53.539Z,2.25
2023-03-26T12:58:30.933Z,2.60
2023-03-26T13:01:04.014Z,2.80
2023-03-26T13:03:42.728Z,2.20
2023-03-26T13:06:24.142Z,3.13
2023-03-26T13:09:06.691Z,1.92
2023-03-26T13:11:39.288Z,3.13
2023-03-26T13:14:21.385Z,10.27
2023-03-26T13:16:53.068Z,3.55
2023-03-26T13:19:22.512Z,2.28
2023-03-26T13:22:01.813Z,2.63
2023-03-26T13:24:43.924Z,4.15
2023-03-26T13:27:24.301Z,4.63
2023-03-26T13:29:59.572Z,6.05
2023-03-26T13:32:35.674Z,2.85
2023-03-26T13:35:22.008Z,4.18
2023-03-26T13:37:56.626Z,4.28
2023-03-26T13:40:31.440Z,2.97
2023-03-26T13:43:25.929Z,9.50
2023-03-26T13:45:59.656Z,4.63
2023-03-26T13:48:27.831Z,2.45
2023-03-26T13:51:00.424Z,5.72
2023-03-26T13:53:31.143Z,3.03
2023-03-26T13:55:58.939Z,2.45
2023-03-26T13:58:34.574Z,5.70
2023-03-26T14:01:07.486Z,2.35
2023-03-26T14:03:45.651Z,2.60
2023-03-26T14:06:28.854Z,5.93
2023-03-26T14:08:58.938Z,4.93
2023-03-26T14:14:01.907Z,3.38
2023-03-26T14:16:34.967Z,6.28
2023-03-26T14:19:10.532Z,4.75
2023-03-26T14:21:55.982Z,4.05
2023-03-26T14:24:47.025Z,5.90
2023-03-26T14:27:30.063Z,5.90
2023-03-26T14:30:15.706Z,6.75
2023-03-26T14:32:54.267Z,3.58
2023-03-26T14:35:38.023Z,6.07
2023-03-26T14:38:35.524Z,8.98
2023-03-26T14:41:10.278Z,5.25
2023-03-26T14:44:09.404Z,10.30
2023-03-26T14:47:04.906Z,9.43
2023-03-26T14:49:54.117Z,10.90
2023-03-26T14:52:29.006Z,9.93
2023-03-26T14:54:59.778Z,3.78
2023-03-26T14:58:02.057Z,12.70
2023-03-26T15:00:43.820Z,4.50
2023-03-26T15:03:56.212Z,6.00
2023-03-26T15:07:05.690Z,8.20
2023-03-26T15:10:10.820Z,2.60
2023-03-26T15:12:48.269Z,5.82
2023-03-26T15:15:54.171Z,4.43
2023-03-26T15:18:50.107Z,9.45
2023-03-26T15:22:00.231Z,6.50
2023-03-26T15:25:18.284Z,8.95
2023-03-26T15:28:08.369Z,7.50
2023-03-26T15:31:10.079Z,5.88
2023-03-26T15:33:52.968Z,8.23
2023-03-26T15:36:59.030Z,7.57
2023-03-26T15:40:12.177Z,6.80
2023-03-26T15:42:52.461Z,4.47
2023-03-26T15:48:10.326Z,7.40
2023-03-26T15:50:51.503Z,4.45
2023-03-26T15:53:27.250Z,6.88
2023-03-26T15:56:04.554Z,5.13
2023-03-26T15:58:38.307Z,6.43
2023-03-26T16:01:19.243Z,5.25
2023-03-26T16:03:54.409Z,6.80
2023-03-26T16:06:33.060Z,6.82
2023-03-26T16:09:09.044Z,8.48
2023-03-26T16:11:50.223Z,6.55
2023-03-26T16:14:23.360Z,5.75
2023-03-26T16:16:55.185Z,8.32
2023-03-26T16:19:45.648Z,6.63
2023-03-26T16:22:15.365Z,12.23
2023-03-26T16:24:46.688Z,4.47
2023-03-26T16:27:33.809Z,6.28
2023-03-26T16:30:29.184Z,5.95
2023-03-26T16:32:58.926Z,4.18
2023-03-26T16:36:18.646Z,2.55
2023-03-26T16:38:54.348Z,6.28
2023-03-26T16:41:24.044Z,7.55
2023-03-26T16:44:04.318Z,7.70
2023-03-26T16:46:43.285Z,6.15
2023-03-26T16:49:19.020Z,9.10
2023-03-26T16:52:02.381Z,12.55
2023-03-26T16:54:36.179Z,8.77
2023-03-26T16:57:09.223Z,90.63
2023-03-26T17:00:05.290Z,24.30
2023-03-26T17:02:37.632Z,25.85
2023-03-26T17:05:11.230Z,35.20
2023-03-26T17:07:41.579Z,37.25
2023-03-26T17:10:16.326Z,27.50
2023-03-26T17:12:45.698Z,21.52
2023-03-26T17:15:29.129Z,12.60
2023-03-26T17:18:04.448Z,20.05
2023-03-26T17:20:37.024Z,18.15
2023-03-26T17:23:13.587Z,15.07
2023-03-26T17:25:43.763Z,17.15
2023-03-26T17:28:32.290Z,15.35
2023-03-26T17:31:17.562Z,11.48
2023-03-26T17:33:48.070Z,10.10
2023-03-26T17:36:24.317Z,8.82
2023-03-26T17:39:05.693Z,11.15
2023-03-26T17:41:56.999Z,7.07
2023-03-26T17:44:46.866Z,4.60
2023-03-26T17:50:14.967Z,10.77
2023-03-26T17:52:49.922Z,15.30
2023-03-26T17:55:18.849Z,6.20
2023-03-26T17:57:46.622Z,7.88
2023-03-26T18:00:18.569Z,7.70
2023-03-26T18:02:48.060Z,4.72
2023-03-26T18:05:17.457Z,6.55
2023-03-26T18:08:24.004Z,7.07
2023-03-26T18:11:12.500Z,7.85
2023-03-26T18:14:03.865Z,7.45
2023-03-26T18:16:40.337Z,9.25
2023-03-26T18:19:17.760Z,10.95
2023-03-26T18:21:44.084Z,6.47
2023-03-26T18:24:18.002Z,5.40
2023-03-26T18:26:45.548Z,12.90
2023-03-26T18:29:23.987Z,12.25
2023-03-26T18:31:51.872Z,6.82
2023-03-26T18:34:19.561Z,10.02
2023-03-26T18:36:46.979Z,18.02
2023-03-26T18:39:14.518Z,13.85
2023-03-26T18:41:42.045Z,7.45
2023-03-26T18:44:09.235Z,5.43
2023-03-26T18:46:34.709Z,5.10
2023-03-26T18:49:03.299Z,5.55
2023-03-26T18:51:30.656Z,7.32
2023-03-26T18:53:59.683Z,7.88
2023-03-26T18:56:33.918Z,5.07
2023-03-26T18:59:00.268Z,8.25
2023-03-26T19:01:31.081Z,5.22
2023-03-26T19:03:56.216Z,6.35
2023-03-26T19:06:21.312Z,6.55
2023-03-26T19:08:47.855Z,5.90
2023-03-26T19:11:18.185Z,4.60
2023-03-26T19:13:42.857Z,8.98
2023-03-26T19:16:13.818Z,7.28
2023-03-26T19:18:44.206Z,7.45
2023-03-26T19:21:10.683Z,5.40
2023-03-26T19:23:38.875Z,5.75
2023-03-26T19:26:06.092Z,6.65
2023-03-26T19:28:35.260Z,7.57
2023-03-26T19:31:08.896Z,5.30
2023-03-26T19:33:36.632Z,7.03
2023-03-26T19:36:04.872Z,7.63
2023-03-26T19:38:39.857Z,8.23
2023-03-26T19:41:04.893Z,6.85
2023-03-26T19:43:29.826Z,8.50
2023-03-26T19:45:59.847Z,10.07
2023-03-26T19:48:46.677Z,7.65
2023-03-26T19:51:21.173Z,9.55
2023-03-26T19:53:55.592Z,5.72
2023-03-26T19:56:22.157Z,6.82
2023-03-26T19:58:47.008Z,9.05
2023-03-26T20:01:18.980Z,6.53
2023-03-26T20:03:46.398Z,6.47
2023-03-26T20:06:14.408Z,8.68
2023-03-26T20:08:40.675Z,8.27
2023-03-26T20:11:05.616Z,6.45
2023-03-26T20:13:31.281Z,9.65
2023-03-26T20:16:05.792Z,8.45
2023-03-26T20:18:32.560Z,7.68
2023-03-26T20:20:57.827Z,8.43
2023-03-26T20:23:24.026Z,8.13
2023-03-26T20:25:52.039Z,6.97
2023-03-26T20:28:19.227Z,11.05
2023-03-26T20:30:44.895Z,11.25
2023-03-26T20:33:16.584Z,9.48
2023-03-26T20:35:43.635Z,7.38
2023-03-26T20:38:09.840Z,7.10
2023-03-26T20:40:34.750Z,9.43
2023-03-26T20:42:59.449Z,7.07
2023-03-26T20:45:26.440Z,8.40
2023-03-26T20:47:52.202Z,10.13
2023-03-26T20:50:18.133Z,13.27
2023-03-26T20:52:44.948Z,6.93
2023-03-26T20:55:13.795Z,8.45
2023-03-26T20:57:39.100Z,8.52
2023-03-26T21:00:09.095Z,8.30
2023-03-26T21:04:58.749Z,8.77
2023-03-26T21:07:23.562Z,7.18
2023-03-26T21:09:51.396Z,11.02
2023-03-26T21:12:22.928Z,12.15
2023-03-26T21:14:48.534Z,11.13
2023-03-26T21:17:17.135Z,10.95
2023-03-26T21:19:42.742Z,15.43
2023-03-26T21:22:20.886Z,11.20
2023-03-26T21:24:59.881Z,8.43
2023-03-26T21:27:29.428Z,12.10
2023-03-26T21:29:55.142Z,8.65
2023-03-26T21:32:20.456Z,7.65
2023-03-26T21:34:55.528Z,9.00
2023-03-26T21:37:23.086Z,9.98
2023-03-26T21:39:48.314Z,12.52
2023-03-26T21:42:15.220Z,18.88
2023-03-26T21:44:40.865Z,12.63
2023-03-26T21:47:09.523Z,9.43
2023-03-26T21:49:35.562Z,13.23
2023-03-26T21:52:00.949Z,12.32
2023-03-26T21:54:28.129Z,11.93
2023-03-26T21:57:06.070Z,9.02
2023-03-26T21:59:40.688Z,12.07
2023-03-26T22:02:14.356Z,16.50
2023-03-26T22:04:49.576Z,13.82
2023-03-26T22:07:17.488Z,15.90
2023-03-26T22:09:43.778Z,14.60
2023-03-26T22:12:09.071Z,12.77
2023-03-26T22:14:35.560Z,17.70
2023-03-26T22:17:00.195Z,13.70
2023-03-26T22:19:30.155Z,17.02
2023-03-26T22:21:55.295Z,14.02
2023-03-26T22:24:20.173Z,13.07
2023-03-26T22:26:44.864Z,16.13
2023-03-26T22:29:09.794Z,14.40
2023-03-26T22:31:36.320Z,15.63
2023-03-26T22:34:00.907Z,15.48
2023-03-26T22:36:27.553Z,12.43
2023-03-26T22:38:54.621Z,14.20
2023-03-26T22:41:19.350Z,16.48
2023-03-26T22:43:46.268Z,13.68
2023-03-26T22:46:11.763Z,14.00
2023-03-26T22:48:40.727Z,13.75
2023-03-26T22:51:08.114Z,13.13
2023-03-26T22:53:33.420Z,11.95
2023-03-26T22:55:59.058Z,13.85
2023-03-26T22:58:24.123Z,14.60
2023-03-26T23:00:51.773Z,18.58
2023-03-26T23:03:16.498Z,18.98
2023-03-26T23:05:42.733Z,16.70
2023-03-26T23:08:07.889Z,15.27
2023-03-26T23:10:32.722Z,14.02
2023-03-26T23:12:57.410Z,13.80
2023-03-26T23:15:22.335Z,18.13
2023-03-26T23:17:54.598Z,16.02
2023-03-26T23:20:21.535Z,15.82
2023-03-26T23:22:48.174Z,17.10
2023-03-26T23:25:13.752Z,13.43
2023-03-26T23:27:38.470Z,14.40
2023-03-26T23:30:04.282Z,16.83
2023-03-26T23:32:29.396Z,16.88
2023-03-26T23:34:55.947Z,17.27
2023-03-26T23:37:23.596Z,17.75
2023-03-26T23:39:50.504Z,19.38
2023-03-26T23:42:15.452Z,18.45
2023-03-26T23:44:40.205Z,18.25
2023-03-26T23:47:10.317Z,21.08
2023-03-26T23:49:34.921Z,20.05
2023-03-26T23:51:59.631Z,19.55
2023-03-26T23:54:25.855Z,22.27
2023-03-26T23:56:53.825Z,20.77
2023-03-26T23:59:19.140Z,21.52
